createdAt,value
2023-05-15T00:00:30.833Z,7.13
2023-05-15T00:03:34.335Z,6.82
2023-05-15T00:06:37.950Z,5.68
2023-05-15T00:09:41.210Z,6.23
2023-05-15T00:12:44.403Z,5.50
2023-05-15T00:15:47.629Z,7.07
2023-05-15T00:18:51.203Z,9.35
2023-05-15T00:21:55.443Z,7.28
2023-05-15T00:24:59.616Z,7.70
2023-05-15T00:28:02.814Z,8.87
2023-05-15T00:31:06.353Z,10.07
2023-05-15T00:34:09.664Z,8.25
2023-05-15T00:37:14.104Z,7.43
2023-05-15T00:40:22.641Z,9.27
2023-05-15T00:43:27.086Z,8.60
2023-05-15T00:46:33.017Z,8.48
2023-05-15T00:49:37.956Z,10.23
2023-05-15T00:52:41.182Z,10.90
2023-05-15T00:55:46.980Z,8.70
2023-05-15T00:58:51.516Z,7.13
2023-05-15T01:01:54.986Z,7.68
2023-05-15T01:04:58.262Z,10.23
2023-05-15T01:08:32.101Z,8.35
2023-05-15T01:11:38.264Z,9.37
2023-05-15T01:14:41.646Z,9.70
2023-05-15T01:17:45.009Z,11.02
2023-05-15T01:21:03.130Z,9.00
2023-05-15T01:24:34.471Z,10.65
2023-05-15T01:27:58.887Z,8.57
2023-05-15T01:31:09.275Z,7.47
2023-05-15T01:34:14.456Z,8.13
2023-05-15T01:37:24.743Z,11.05
2023-05-15T01:40:29.619Z,7.65
2023-05-15T01:43:35.446Z,8.00
2023-05-15T01:46:42.692Z,6.53
2023-05-15T01:49:46.533Z,8.55
2023-05-15T01:52:56.473Z,5.63
2023-05-15T01:56:04.090Z,6.50
2023-05-15T01:59:08.717Z,6.40
2023-05-15T02:02:13.291Z,6.10
2023-05-15T02:05:17.818Z,5.60
2023-05-15T02:08:25.739Z,10.00
2023-05-15T02:11:29.036Z,7.32
2023-05-15T02:14:32.569Z,6.10
2023-05-15T02:17:36.023Z,8.10
2023-05-15T02:20:42.131Z,8.32
2023-05-15T02:23:46.052Z,6.80
2023-05-15T02:27:16.500Z,8.40
2023-05-15T02:30:49.558Z,6.27
2023-05-15T02:34:05.879Z,8.30
2023-05-15T02:37:13.939Z,6.57
2023-05-15T02:40:20.392Z,9.15
2023-05-15T02:43:24.065Z,7.47
2023-05-15T02:46:28.037Z,9.43
2023-05-15T02:49:31.259Z,8.70
2023-05-15T02:52:38.128Z,8.50
2023-05-15T02:55:41.520Z,7.55
2023-05-15T02:58:44.900Z,8.70
2023-05-15T03:01:48.768Z,7.50
2023-05-15T03:04:52.315Z,8.83
2023-05-15T03:07:55.762Z,9.02
2023-05-15T03:10:59.020Z,7.22
2023-05-15T03:14:02.348Z,7.93
2023-05-15T03:17:05.798Z,10.50
2023-05-15T03:20:09.166Z,5.33
2023-05-15T03:23:12.338Z,8.25
2023-05-15T03:26:15.751Z,8.15
2023-05-15T03:29:19.387Z,7.20
2023-05-15T03:32:22.734Z,5.80
2023-05-15T03:35:27.160Z,10.10
2023-05-15T03:38:30.429Z,8.02
2023-05-15T03:41:33.590Z,7.30
2023-05-15T03:44:36.793Z,8.25
2023-05-15T03:47:39.990Z,9.43
2023-05-15T03:50:45.485Z,9.50
2023-05-15T03:53:48.706Z,8.80
2023-05-15T03:56:51.992Z,7.90
2023-05-15T03:59:55.192Z,7.20
2023-05-15T04:02:58.502Z,10.47
2023-05-15T04:06:01.779Z,7.97
2023-05-15T04:09:05.011Z,8.55
2023-05-15T04:12:08.382Z,9.60
2023-05-15T04:15:20.117Z,6.50
2023-05-15T04:18:23.259Z,6.90
2023-05-15T04:21:26.488Z,6.33
2023-05-15T04:24:29.616Z,5.88
2023-05-15T04:27:32.926Z,6.03
2023-05-15T04:30:36.536Z,5.40
2023-05-15T04:33:39.753Z,8.87
2023-05-15T04:36:43.305Z,9.93
2023-05-15T04:39:46.483Z,10.82
2023-05-15T04:42:49.704Z,5.63
2023-05-15T04:45:52.947Z,9.02
2023-05-15T04:48:56.065Z,5.97
2023-05-15T04:51:59.281Z,9.37
2023-05-15T04:55:02.641Z,10.32
2023-05-15T04:58:05.937Z,6.25
2023-05-15T05:01:09.172Z,7.95
2023-05-15T05:04:12.427Z,6.47
2023-05-15T05:07:15.816Z,8.63
2023-05-15T05:10:22.716Z,8.02
2023-05-15T05:13:27.908Z,6.68
2023-05-15T05:16:31.413Z,6.53
2023-05-15T05:19:34.728Z,7.83
2023-05-15T05:22:40.178Z,12.07
2023-05-15T05:25:43.416Z,8.82
2023-05-15T05:28:46.711Z,7.60
2023-05-15T05:31:50.070Z,9.32
2023-05-15T05:34:53.332Z,13.70
2023-05-15T05:37:59.268Z,10.23
2023-05-15T05:41:03.188Z,7.68
2023-05-15T05:44:06.417Z,10.50
2023-05-15T05:47:09.645Z,11.90
2023-05-15T05:50:12.864Z,8.70
2023-05-15T05:53:16.393Z,7.93
2023-05-15T05:56:19.874Z,8.00
2023-05-15T05:59:23.242Z,8.75
2023-05-15T06:02:26.668Z,11.98
2023-05-15T06:05:30.049Z,10.73
2023-05-15T06:08:33.405Z,8.50
2023-05-15T06:11:37.275Z,10.68
2023-05-15T06:14:42.836Z,9.45
2023-05-15T06:17:46.191Z,9.80
2023-05-15T06:20:49.427Z,10.53
2023-05-15T06:23:52.635Z,7.30
2023-05-15T06:26:56.424Z,8.40
2023-05-15T06:29:59.905Z,8.30
2023-05-15T06:33:03.389Z,11.32
2023-05-15T06:36:06.810Z,10.33
2023-05-15T06:39:13.115Z,11.93
2023-05-15T06:42:16.383Z,9.32
2023-05-15T06:45:19.858Z,9.13
2023-05-15T06:48:23.384Z,10.65
2023-05-15T06:51:26.893Z,15.00
2023-05-15T06:54:30.135Z,7.77
2023-05-15T06:57:34.939Z,10.68
2023-05-15T07:00:38.263Z,9.05
2023-05-15T07:03:43.096Z,8.20
2023-05-15T07:06:46.583Z,9.07
2023-05-15T07:09:50.426Z,16.33
2023-05-15T07:12:56.144Z,8.38
2023-05-15T07:15:59.475Z,11.93
2023-05-15T07:19:02.749Z,11.38
2023-05-15T07:22:06.119Z,12.00
2023-05-15T07:25:09.646Z,11.30
2023-05-15T07:28:12.989Z,11.13
2023-05-15T07:31:18.747Z,14.80
2023-05-15T07:34:21.910Z,11.35
2023-05-15T07:37:27.732Z,13.97
2023-05-15T07:40:31.313Z,13.37
2023-05-15T07:43:34.617Z,12.90
2023-05-15T07:46:39.028Z,14.98
2023-05-15T07:49:42.530Z,14.70
2023-05-15T07:52:45.827Z,14.30
2023-05-15T07:55:49.103Z,9.83
2023-05-15T07:58:52.356Z,9.10
2023-05-15T08:01:55.589Z,13.07
2023-05-15T08:04:58.979Z,10.80
2023-05-15T08:08:02.295Z,8.67
2023-05-15T08:11:05.644Z,11.27
2023-05-15T08:14:09.929Z,12.05
2023-05-15T08:17:14.649Z,11.18
2023-05-15T08:20:17.872Z,9.07
2023-05-15T08:23:21.259Z,9.67
2023-05-15T08:26:24.460Z,11.10
2023-05-15T08:29:27.682Z,10.07
2023-05-15T08:32:30.966Z,11.50
2023-05-15T08:35:34.405Z,11.90
2023-05-15T08:38:37.748Z,8.70
2023-05-15T08:41:57.962Z,9.93
2023-05-15T08:45:01.617Z,10.27
2023-05-15T08:48:11.198Z,12.45
2023-05-15T08:51:18.943Z,11.57
2023-05-15T08:54:22.821Z,9.40
2023-05-15T08:57:28.127Z,10.50
2023-05-15T09:00:31.683Z,10.48
2023-05-15T09:03:37.263Z,11.07
2023-05-15T09:06:42.438Z,16.88
2023-05-15T09:09:46.115Z,9.30
2023-05-15T09:12:51.640Z,8.23
2023-05-15T09:15:55.013Z,9.23
2023-05-15T09:19:00.171Z,8.20
2023-05-15T09:22:24.353Z,10.32
2023-05-15T09:25:34.639Z,8.67
2023-05-15T09:28:40.999Z,9.20
2023-05-15T09:31:46.575Z,8.95
2023-05-15T09:34:49.922Z,8.25
2023-05-15T09:38:00.292Z,8.60
2023-05-15T09:41:06.454Z,8.07
2023-05-15T09:44:26.516Z,10.67
2023-05-15T09:47:30.232Z,7.68
2023-05-15T09:50:38.636Z,6.05
2023-05-15T09:53:48.686Z,6.70
2023-05-15T09:57:11.198Z,7.40
2023-05-15T10:00:14.852Z,5.80
2023-05-15T10:03:24.571Z,5.82
2023-05-15T10:06:34.483Z,8.88
2023-05-15T10:09:40.638Z,6.93
2023-05-15T10:12:43.987Z,6.50
2023-05-15T10:15:49.816Z,6.10
2023-05-15T10:18:53.360Z,6.70
2023-05-15T10:21:57.421Z,7.40
2023-05-15T10:25:07.332Z,5.63
2023-05-15T10:28:13.737Z,5.70
2023-05-15T10:31:18.629Z,6.50
2023-05-15T10:34:22.516Z,6.18
2023-05-15T10:37:27.625Z,5.95
2023-05-15T10:40:32.451Z,5.40
2023-05-15T10:43:36.862Z,5.50
2023-05-15T10:46:40.733Z,5.70
2023-05-15T10:49:44.195Z,7.80
2023-05-15T10:52:50.638Z,7.85
2023-05-15T10:55:54.109Z,4.82
2023-05-15T10:58:57.595Z,5.23
2023-05-15T11:02:38.594Z,4.90
2023-05-15T11:06:07.749Z,5.93
2023-05-15T11:09:27.471Z,7.55
2023-05-15T11:12:57.769Z,6.47
2023-05-15T11:16:00.995Z,4.23
2023-05-15T11:19:21.401Z,5.13
2023-05-15T11:22:28.707Z,4.93
2023-05-15T11:25:32.407Z,5.05
2023-05-15T11:28:43.547Z,5.72
2023-05-15T11:31:46.844Z,6.13
2023-05-15T11:34:51.276Z,8.37
2023-05-15T11:38:14.552Z,5.80
2023-05-15T11:41:20.014Z,6.25
2023-05-15T11:44:24.409Z,5.57
2023-05-15T11:47:31.616Z,7.23
2023-05-15T11:50:36.206Z,6.30
2023-05-15T11:53:40.340Z,5.45
2023-05-15T11:56:44.983Z,6.03
2023-05-15T11:59:48.222Z,3.60
2023-05-15T12:02:51.761Z,4.77
2023-05-15T12:05:59.585Z,5.07
2023-05-15T12:09:04.990Z,4.32
2023-05-15T12:12:14.547Z,6.35
2023-05-15T12:15:18.455Z,5.15
2023-05-15T12:18:21.707Z,5.30
2023-05-15T12:21:27.316Z,7.43
2023-05-15T12:24:30.748Z,6.03
2023-05-15T12:27:38.184Z,5.53
2023-05-15T12:30:43.123Z,5.45
2023-05-15T12:33:46.603Z,4.10
2023-05-15T12:36:49.950Z,4.60
2023-05-15T12:39:59.808Z,4.97
2023-05-15T12:43:07.706Z,3.67
2023-05-15T12:46:13.064Z,5.70
2023-05-15T12:49:22.785Z,5.60
2023-05-15T12:52:29.527Z,6.60
2023-05-15T12:55:33.670Z,6.13
2023-05-15T12:58:39.939Z,5.40
2023-05-15T13:01:43.312Z,7.28
2023-05-15T13:04:49.856Z,6.73
2023-05-15T13:07:53.631Z,6.63
2023-05-15T13:10:58.532Z,5.00
2023-05-15T13:14:08.348Z,6.30
2023-05-15T13:17:11.998Z,6.07
2023-05-15T13:20:15.410Z,6.83
2023-05-15T13:23:21.245Z,7.73
2023-05-15T13:26:24.428Z,5.35
2023-05-15T13:29:27.663Z,4.40
2023-05-15T13:32:31.017Z,5.22
2023-05-15T13:35:34.509Z,8.17
2023-05-15T13:38:37.758Z,7.20
2023-05-15T13:41:40.884Z,9.40
2023-05-15T13:44:44.068Z,8.02
2023-05-15T13:47:47.333Z,7.68
2023-05-15T13:50:51.197Z,10.33
2023-05-15T13:53:54.423Z,7.10
2023-05-15T13:56:57.710Z,7.45
2023-05-15T14:00:01.073Z,8.38
2023-05-15T14:03:04.890Z,8.70
2023-05-15T14:06:10.283Z,8.80
2023-05-15T14:09:13.527Z,10.40
2023-05-15T14:12:16.992Z,9.93
2023-05-15T14:15:20.379Z,10.45
2023-05-15T14:18:23.715Z,9.68
2023-05-15T14:21:26.971Z,10.80
2023-05-15T14:24:30.222Z,12.03
2023-05-15T14:27:33.523Z,8.10
2023-05-15T14:30:36.990Z,8.65
2023-05-15T14:33:41.312Z,8.02
2023-05-15T14:36:45.439Z,8.70
2023-05-15T14:39:48.739Z,9.47
2023-05-15T14:42:51.988Z,8.75
2023-05-15T14:45:58.276Z,11.73
2023-05-15T14:49:01.623Z,9.10
2023-05-15T14:52:09.127Z,9.57
2023-05-15T14:55:12.291Z,10.17
2023-05-15T14:58:15.509Z,8.35
2023-05-15T15:01:18.783Z,8.20
2023-05-15T15:04:22.167Z,9.70
2023-05-15T15:07:30.790Z,9.07
2023-05-15T15:10:38.976Z,8.47
2023-05-15T15:13:42.223Z,8.80
2023-05-15T15:16:46.519Z,6.60
2023-05-15T15:19:49.926Z,7.00
2023-05-15T15:22:53.841Z,8.03
2023-05-15T15:25:57.041Z,12.70
2023-05-15T15:29:01.047Z,7.45
2023-05-15T15:32:04.667Z,11.30
2023-05-15T15:35:08.372Z,7.82
2023-05-15T15:38:13.391Z,8.23
2023-05-15T15:41:16.878Z,8.30
2023-05-15T15:44:20.137Z,9.73
2023-05-15T15:47:23.647Z,10.93
2023-05-15T15:50:27.373Z,13.00
2023-05-15T15:53:34.123Z,8.90
2023-05-15T15:56:37.403Z,9.07
2023-05-15T15:59:41.120Z,11.48
2023-05-15T16:02:44.713Z,11.57
2023-05-15T16:05:47.988Z,10.88
2023-05-15T16:08:51.919Z,11.07
2023-05-15T16:11:55.117Z,10.03
2023-05-15T16:15:02.191Z,12.32
2023-05-15T16:18:13.284Z,10.93
2023-05-15T16:21:16.489Z,12.32
2023-05-15T16:24:19.790Z,12.27
2023-05-15T16:27:23.029Z,14.50
2023-05-15T16:30:33.690Z,11.55
2023-05-15T16:33:48.403Z,11.20
2023-05-15T16:36:51.667Z,9.13
2023-05-15T16:39:54.884Z,8.43
2023-05-15T16:42:58.158Z,9.50
2023-05-15T16:46:01.688Z,10.38
2023-05-15T16:49:05.483Z,8.30
2023-05-15T16:52:08.699Z,7.38
2023-05-15T16:55:15.336Z,7.63
2023-05-15T16:58:18.563Z,6.77
2023-05-15T17:01:22.095Z,7.75
2023-05-15T17:04:25.364Z,7.68
2023-05-15T17:07:28.611Z,7.32
2023-05-15T17:10:32.277Z,7.90
2023-05-15T17:13:35.564Z,9.10
2023-05-15T17:16:38.805Z,8.80
2023-05-15T17:19:41.940Z,8.98
2023-05-15T17:22:45.126Z,7.57
2023-05-15T17:25:48.220Z,7.53
2023-05-15T17:28:51.580Z,10.17
2023-05-15T17:31:54.910Z,8.82
2023-05-15T17:34:58.238Z,8.35
2023-05-15T17:38:01.481Z,6.53
2023-05-15T17:41:05.338Z,6.53
2023-05-15T17:44:09.169Z,7.43
2023-05-15T17:47:12.640Z,6.35
2023-05-15T17:50:15.878Z,6.47
2023-05-15T17:53:18.937Z,6.57
2023-05-15T17:56:22.951Z,6.50
2023-05-15T17:59:26.054Z,7.57
2023-05-15T18:02:29.156Z,7.93
2023-05-15T18:05:32.135Z,6.75
2023-05-15T18:08:35.250Z,7.80
2023-05-15T18:12:03.735Z,7.03
2023-05-15T18:15:06.984Z,7.40
2023-05-15T18:18:12.529Z,7.90
2023-05-15T18:21:16.349Z,8.43
2023-05-15T18:24:19.596Z,9.57
2023-05-15T18:27:22.893Z,10.10
2023-05-15T18:30:26.109Z,10.48
2023-05-15T18:33:29.398Z,11.82
2023-05-15T18:36:32.643Z,11.07
2023-05-15T18:39:38.770Z,11.60
2023-05-15T18:42:41.948Z,12.27
2023-05-15T18:45:45.926Z,11.23
2023-05-15T18:48:49.125Z,11.68
2023-05-15T18:51:52.445Z,12.38
2023-05-15T18:54:57.637Z,10.93
2023-05-15T18:58:01.112Z,11.50
2023-05-15T19:01:04.517Z,11.43
2023-05-15T19:04:09.127Z,11.32
2023-05-15T19:07:12.270Z,12.15
2023-05-15T19:10:15.629Z,11.68
2023-05-15T19:13:19.282Z,11.27
2023-05-15T19:16:27.027Z,13.07
2023-05-15T19:19:30.484Z,12.52
2023-05-15T19:22:33.696Z,14.60
2023-05-15T19:25:36.928Z,14.50
2023-05-15T19:28:40.107Z,14.13
2023-05-15T19:31:44.081Z,16.23
2023-05-15T19:34:48.855Z,17.80
2023-05-15T19:37:52.073Z,18.00
2023-05-15T19:40:55.485Z,18.67
2023-05-15T19:43:58.811Z,20.30
2023-05-15T19:47:02.071Z,16.77
2023-05-15T19:50:05.892Z,18.65
2023-05-15T19:53:11.035Z,17.60
2023-05-15T19:56:14.311Z,19.55
2023-05-15T19:59:17.570Z,20.20
2023-05-15T20:02:21.036Z,18.80
2023-05-15T20:05:24.279Z,19.48
2023-05-15T20:08:27.807Z,22.13
2023-05-15T20:11:31.096Z,20.25
2023-05-15T20:14:34.307Z,20.67
2023-05-15T20:17:37.711Z,19.47
2023-05-15T20:20:41.169Z,20.80
2023-05-15T20:23:44.414Z,20.48
2023-05-15T20:26:47.570Z,17.23
2023-05-15T20:29:50.832Z,18.23
2023-05-15T20:32:54.185Z,20.03
2023-05-15T20:35:58.249Z,19.27
2023-05-15T20:39:05.642Z,16.42
2023-05-15T20:42:09.010Z,22.02
2023-05-15T20:45:12.623Z,17.57
2023-05-15T20:48:15.839Z,18.03
2023-05-15T20:51:19.048Z,17.65
2023-05-15T20:54:22.196Z,17.15
2023-05-15T20:57:25.575Z,17.98
2023-05-15T21:00:29.030Z,18.23
2023-05-15T21:03:32.313Z,19.00
2023-05-15T21:06:35.857Z,15.30
2023-05-15T21:09:39.025Z,17.95
2023-05-15T21:12:42.570Z,20.35
2023-05-15T21:15:46.530Z,19.10
2023-05-15T21:18:49.819Z,19.80
2023-05-15T21:21:53.139Z,18.80
2023-05-15T21:24:56.343Z,18.58
2023-05-15T21:27:59.603Z,15.68
2023-05-15T21:31:12.222Z,16.60
2023-05-15T21:34:15.728Z,19.57
2023-05-15T21:37:19.328Z,22.73
2023-05-15T21:40:22.595Z,17.05
2023-05-15T21:43:25.822Z,19.50
2023-05-15T21:46:29.079Z,20.40
2023-05-15T21:49:32.348Z,22.87
2023-05-15T21:52:35.683Z,24.60
2023-05-15T21:55:39.878Z,22.40
2023-05-15T21:58:43.058Z,20.73
2023-05-15T22:01:46.458Z,20.23
2023-05-15T22:04:49.683Z,20.17
2023-05-15T22:07:52.971Z,19.60
2023-05-15T22:10:56.267Z,22.15
2023-05-15T22:13:59.546Z,25.00
2023-05-15T22:17:02.703Z,25.60
2023-05-15T22:20:13.285Z,24.90
2023-05-15T22:23:16.447Z,24.42
2023-05-15T22:26:20.757Z,26.42
2023-05-15T22:29:24.133Z,24.15
2023-05-15T22:32:27.450Z,20.57
2023-05-15T22:35:30.676Z,22.17
2023-05-15T22:38:33.934Z,22.30
2023-05-15T22:41:37.112Z,27.08
2023-05-15T22:44:40.386Z,26.73
2023-05-15T22:47:43.669Z,27.03
2023-05-15T22:50:46.936Z,27.27
2023-05-15T22:53:50.312Z,24.42
2023-05-15T22:56:53.943Z,24.50
2023-05-15T22:59:57.172Z,24.05
2023-05-15T23:03:00.622Z,26.07
2023-05-15T23:06:04.076Z,23.70
2023-05-15T23:09:08.516Z,24.92
2023-05-15T23:12:11.785Z,27.52
2023-05-15T23:15:15.004Z,24.67
2023-05-15T23:18:18.301Z,25.90
2023-05-15T23:21:21.525Z,25.77
2023-05-15T23:24:24.767Z,24.25
2023-05-15T23:27:28.240Z,23.80
2023-05-15T23:30:31.542Z,22.42
2023-05-15T23:33:36.460Z,23.90
2023-05-15T23:36:39.750Z,22.47
2023-05-15T23:39:42.901Z,24.15
2023-05-15T23:42:46.805Z,24.48
2023-05-15T23:45:50.024Z,23.73
2023-05-15T23:48:53.303Z,26.10
2023-05-15T23:51:56.503Z,22.77
2023-05-15T23:55:00.234Z,24.52
2023-05-15T23:58:03.653Z,24.67
